createdAt,value
2023-01-12T00:00:59.800Z,1006.07
2023-01-12T00:01:59.861Z,1006.04
2023-01-12T00:02:59.800Z,1006.01
2023-01-12T00:03:59.853Z,1005.95
2023-01-12T00:04:59.824Z,1006.01
2023-01-12T00:05:59.808Z,1005.95
2023-01-12T00:06:59.815Z,1005.88
2023-01-12T00:07:59.826Z,1005.87
2023-01-12T00:08:59.807Z,1005.99
2023-01-12T00:09:59.809Z,1005.92
2023-01-12T00:10:59.812Z,1005.82
2023-01-12T00:11:59.822Z,1005.85
2023-01-12T00:12:59.827Z,1005.82
2023-01-12T00:13:59.825Z,1005.75
2023-01-12T00:14:59.820Z,1005.72
2023-01-12T00:15:59.839Z,1005.71
2023-01-12T00:16:59.826Z,1005.70
2023-01-12T00:17:59.832Z,1005.65
2023-01-12T00:18:59.838Z,1005.69
2023-01-12T00:19:59.840Z,1005.63
2023-01-12T00:20:59.836Z,1005.61
2023-01-12T00:21:59.862Z,1005.71
2023-01-12T00:22:59.848Z,1005.68
2023-01-12T00:23:59.871Z,1005.64
2023-01-12T00:24:59.853Z,1005.64
2023-01-12T00:25:59.857Z,1005.67
2023-01-12T00:26:59.865Z,1005.56
2023-01-12T00:27:59.865Z,1005.63
2023-01-12T00:28:59.854Z,1005.63
2023-01-12T00:29:59.855Z,1005.63
2023-01-12T00:30:59.863Z,1005.67
2023-01-12T00:31:59.869Z,1005.64
2023-01-12T00:32:59.873Z,1005.64
2023-01-12T00:33:59.863Z,1005.67
2023-01-12T00:34:59.874Z,1005.65
2023-01-12T00:35:59.877Z,1005.63
2023-01-12T00:36:59.878Z,1005.61
2023-01-12T00:37:59.885Z,1005.68
2023-01-12T00:38:59.889Z,1005.69
2023-01-12T00:40:02.459Z,1005.75
2023-01-12T00:40:59.888Z,1005.79
2023-01-12T00:41:59.884Z,1005.73
2023-01-12T00:42:59.886Z,1005.78
2023-01-12T00:43:59.896Z,1005.69
2023-01-12T00:44:59.907Z,1005.63
2023-01-12T00:45:59.967Z,1005.63
2023-01-12T00:46:59.896Z,1005.62
2023-01-12T00:47:59.907Z,1005.60
2023-01-12T00:48:59.913Z,1005.61
2023-01-12T00:49:59.908Z,1005.76
2023-01-12T00:50:59.915Z,1005.63
2023-01-12T00:51:59.918Z,1005.57
2023-01-12T00:52:59.916Z,1005.60
2023-01-12T00:53:59.917Z,1005.61
2023-01-12T00:55:00.111Z,1005.61
2023-01-12T00:55:59.949Z,1005.51
2023-01-12T00:56:59.931Z,1005.55
2023-01-12T00:57:59.934Z,1005.58
2023-01-12T00:58:59.938Z,1005.57
2023-01-12T01:00:00.267Z,1005.54
2023-01-12T01:00:59.968Z,1005.57
2023-01-12T01:01:59.943Z,1005.54
2023-01-12T01:03:00.014Z,1005.52
2023-01-12T01:03:59.951Z,1005.41
2023-01-12T01:04:59.953Z,1005.41
2023-01-12T01:05:59.942Z,1005.43
2023-01-12T01:06:59.956Z,1005.38
2023-01-12T01:07:59.945Z,1005.49
2023-01-12T01:08:59.961Z,1005.48
2023-01-12T01:09:59.956Z,1005.39
2023-01-12T01:10:59.964Z,1005.37
2023-01-12T01:11:59.992Z,1005.27
2023-01-12T01:12:59.967Z,1005.34
2023-01-12T01:13:59.975Z,1005.40
2023-01-12T01:14:59.971Z,1005.34
2023-01-12T01:16:00.014Z,1005.43
2023-01-12T01:16:59.968Z,1005.44
2023-01-12T01:17:59.978Z,1005.45
2023-01-12T01:18:59.980Z,1005.48
2023-01-12T01:19:59.982Z,1005.43
2023-01-12T01:20:59.986Z,1005.50
2023-01-12T01:21:59.996Z,1005.49
2023-01-12T01:22:59.990Z,1005.52
2023-01-12T01:23:59.991Z,1005.48
2023-01-12T01:25:00.001Z,1005.50
2023-01-12T01:25:59.998Z,1005.55
2023-01-12T01:26:59.990Z,1005.51
2023-01-12T01:28:00.019Z,1005.54
2023-01-12T01:29:00.012Z,1005.50
2023-01-12T01:30:00.011Z,1005.48
2023-01-12T01:31:00.074Z,1005.47
2023-01-12T01:32:00.002Z,1005.40
2023-01-12T01:33:00.008Z,1005.46
2023-01-12T01:34:00.008Z,1005.38
2023-01-12T01:35:00.014Z,1005.38
2023-01-12T01:36:00.021Z,1005.44
2023-01-12T01:37:00.020Z,1005.41
2023-01-12T01:38:00.039Z,1005.38
2023-01-12T01:39:00.044Z,1005.33
2023-01-12T01:40:00.047Z,1005.38
2023-01-12T01:41:00.045Z,1005.36
2023-01-12T01:42:00.037Z,1005.48
2023-01-12T01:43:00.039Z,1005.44
2023-01-12T01:44:00.067Z,1005.40
2023-01-12T01:45:00.046Z,1005.40
2023-01-12T01:46:00.133Z,1005.43
2023-01-12T01:47:00.056Z,1005.44
2023-01-12T01:48:00.069Z,1005.42
2023-01-12T01:49:00.059Z,1005.39
2023-01-12T01:50:00.053Z,1005.35
2023-01-12T01:51:00.059Z,1005.37
2023-01-12T01:52:00.058Z,1005.35
2023-01-12T01:53:00.066Z,1005.31
2023-01-12T01:54:00.105Z,1005.27
2023-01-12T01:55:00.067Z,1005.22
2023-01-12T01:56:00.073Z,1005.29
2023-01-12T01:57:00.074Z,1005.33
2023-01-12T01:58:00.105Z,1005.36
2023-01-12T01:59:00.069Z,1005.28
2023-01-12T02:00:00.139Z,1005.28
2023-01-12T02:01:00.166Z,1005.23
2023-01-12T02:02:00.178Z,1005.27
2023-01-12T02:03:00.151Z,1005.24
2023-01-12T02:04:00.104Z,1005.19
2023-01-12T02:05:00.101Z,1005.26
2023-01-12T02:06:00.107Z,1005.20
2023-01-12T02:07:00.110Z,1005.20
2023-01-12T02:08:00.097Z,1005.18
2023-01-12T02:09:00.117Z,1005.27
2023-01-12T02:10:00.122Z,1005.22
2023-01-12T02:11:00.107Z,1005.25
2023-01-12T02:12:00.157Z,1005.24
2023-01-12T02:13:00.108Z,1005.23
2023-01-12T02:14:00.121Z,1005.29
2023-01-12T02:15:00.142Z,1005.24
2023-01-12T02:16:00.292Z,1005.19
2023-01-12T02:17:00.135Z,1005.18
2023-01-12T02:18:00.147Z,1005.15
2023-01-12T02:19:00.132Z,1005.18
2023-01-12T02:20:00.194Z,1005.13
2023-01-12T02:21:00.129Z,1005.11
2023-01-12T02:22:00.133Z,1005.10
2023-01-12T02:23:00.148Z,1005.12
2023-01-12T02:24:00.138Z,1005.09
2023-01-12T02:25:00.172Z,1005.05
2023-01-12T02:26:00.139Z,1005.07
2023-01-12T02:27:00.145Z,1005.05
2023-01-12T02:28:00.163Z,1004.98
2023-01-12T02:29:00.188Z,1005.10
2023-01-12T02:30:00.195Z,1005.09
2023-01-12T02:31:00.248Z,1005.07
2023-01-12T02:32:00.194Z,1005.01
2023-01-12T02:33:00.167Z,1005.02
2023-01-12T02:34:00.157Z,1004.99
2023-01-12T02:35:00.242Z,1004.98
2023-01-12T02:36:00.173Z,1004.96
2023-01-12T02:37:00.179Z,1004.95
2023-01-12T02:38:00.199Z,1004.90
2023-01-12T02:39:00.179Z,1004.90
2023-01-12T02:40:00.195Z,1004.86
2023-01-12T02:41:00.215Z,1004.88
2023-01-12T02:42:00.178Z,1004.86
2023-01-12T02:43:00.186Z,1004.83
2023-01-12T02:44:00.189Z,1004.83
2023-01-12T02:45:00.211Z,1004.78
2023-01-12T02:46:00.201Z,1004.80
2023-01-12T02:47:00.204Z,1004.79
2023-01-12T02:48:00.228Z,1004.85
2023-01-12T02:49:00.201Z,1004.73
2023-01-12T02:50:00.216Z,1004.76
2023-01-12T02:51:00.205Z,1004.76
2023-01-12T02:52:00.211Z,1004.79
2023-01-12T02:53:00.213Z,1004.76
2023-01-12T02:54:00.224Z,1004.79
2023-01-12T02:55:00.220Z,1004.70
2023-01-12T02:56:00.219Z,1004.78
2023-01-12T02:57:00.232Z,1004.82
2023-01-12T02:58:00.237Z,1004.72
2023-01-12T02:59:00.230Z,1004.81
2023-01-12T03:00:00.298Z,1004.81
2023-01-12T03:01:00.344Z,1004.86
2023-01-12T03:02:00.247Z,1004.82
2023-01-12T03:03:00.286Z,1004.80
2023-01-12T03:04:01.153Z,1004.80
2023-01-12T03:05:00.246Z,1004.79
2023-01-12T03:06:00.256Z,1004.77
2023-01-12T03:07:00.272Z,1004.73
2023-01-12T03:08:00.271Z,1004.84
2023-01-12T03:09:00.269Z,1004.78
2023-01-12T03:10:00.272Z,1004.78
2023-01-12T03:11:00.271Z,1004.76
2023-01-12T03:12:00.269Z,1004.77
2023-01-12T03:13:00.278Z,1004.74
2023-01-12T03:14:00.272Z,1004.75
2023-01-12T03:15:00.281Z,1004.81
2023-01-12T03:16:00.360Z,1004.81
2023-01-12T03:17:00.292Z,1004.76
2023-01-12T03:18:00.292Z,1004.70
2023-01-12T03:19:00.285Z,1004.73
2023-01-12T03:20:00.321Z,1004.69
2023-01-12T03:21:00.304Z,1004.74
2023-01-12T03:22:00.296Z,1004.69
2023-01-12T03:23:00.316Z,1004.64
2023-01-12T03:24:00.304Z,1004.66
2023-01-12T03:25:00.306Z,1004.62
2023-01-12T03:26:00.309Z,1004.62
2023-01-12T03:27:00.314Z,1004.61
2023-01-12T03:28:00.319Z,1004.62
2023-01-12T03:29:00.317Z,1004.64
2023-01-12T03:30:00.323Z,1004.66
2023-01-12T03:31:00.330Z,1004.61
2023-01-12T03:32:00.331Z,1004.63
2023-01-12T03:33:00.330Z,1004.62
2023-01-12T03:34:00.331Z,1004.55
2023-01-12T03:35:00.350Z,1004.60
2023-01-12T03:36:00.363Z,1004.53
2023-01-12T03:37:00.347Z,1004.60
2023-01-12T03:38:00.351Z,1004.59
2023-01-12T03:39:00.343Z,1004.57
2023-01-12T03:40:00.355Z,1004.53
2023-01-12T03:41:00.363Z,1004.53
2023-01-12T03:42:00.369Z,1004.49
2023-01-12T03:43:00.357Z,1004.47
2023-01-12T03:44:00.371Z,1004.46
2023-01-12T03:45:00.372Z,1004.54
2023-01-12T03:46:00.373Z,1004.48
2023-01-12T03:47:00.414Z,1004.51
2023-01-12T03:48:00.382Z,1004.43
2023-01-12T03:49:00.374Z,1004.44
2023-01-12T03:50:00.390Z,1004.39
2023-01-12T03:51:00.387Z,1004.45
2023-01-12T03:52:00.406Z,1004.46
2023-01-12T03:53:00.394Z,1004.45
2023-01-12T03:54:00.397Z,1004.44
2023-01-12T03:55:00.398Z,1004.41
2023-01-12T03:56:00.405Z,1004.38
2023-01-12T03:57:00.406Z,1004.43
2023-01-12T03:58:00.399Z,1004.38
2023-01-12T03:59:00.412Z,1004.35
2023-01-12T04:00:00.417Z,1004.32
2023-01-12T04:01:00.490Z,1004.36
2023-01-12T04:02:00.494Z,1004.40
2023-01-12T04:03:00.474Z,1004.29
2023-01-12T04:04:00.426Z,1004.27
2023-01-12T04:05:00.426Z,1004.32
2023-01-12T04:06:00.437Z,1004.28
2023-01-12T04:07:01.727Z,1004.34
2023-01-12T04:08:00.455Z,1004.25
2023-01-12T04:09:00.446Z,1004.23
2023-01-12T04:10:00.447Z,1004.24
2023-01-12T04:11:00.439Z,1004.21
2023-01-12T04:12:00.452Z,1004.16
2023-01-12T04:13:00.456Z,1004.16
2023-01-12T04:14:00.451Z,1004.17
2023-01-12T04:15:00.476Z,1004.18
2023-01-12T04:16:00.478Z,1004.22
2023-01-12T04:17:00.467Z,1004.13
2023-01-12T04:18:00.470Z,1004.17
2023-01-12T04:19:00.464Z,1004.07
2023-01-12T04:20:00.488Z,1004.11
2023-01-12T04:21:00.478Z,1004.16
2023-01-12T04:22:00.480Z,1004.09
2023-01-12T04:23:00.478Z,1004.09
2023-01-12T04:24:00.510Z,1004.10
2023-01-12T04:25:00.495Z,1004.11
2023-01-12T04:26:00.499Z,1004.13
2023-01-12T04:27:00.489Z,1004.01
2023-01-12T04:28:00.506Z,1004.00
2023-01-12T04:29:00.502Z,1004.10
2023-01-12T04:30:00.503Z,1004.08
2023-01-12T04:31:00.511Z,1004.04
2023-01-12T04:32:00.620Z,1004.03
2023-01-12T04:33:00.511Z,1004.09
2023-01-12T04:34:00.515Z,1004.10
2023-01-12T04:35:00.518Z,1004.06
2023-01-12T04:36:00.517Z,1004.06
2023-01-12T04:37:00.526Z,1004.15
2023-01-12T04:38:00.527Z,1004.05
2023-01-12T04:39:00.527Z,1004.09
2023-01-12T04:40:00.565Z,1004.07
2023-01-12T04:41:00.532Z,1004.08
2023-01-12T04:42:00.555Z,1004.05
2023-01-12T04:43:00.544Z,1004.05
2023-01-12T04:44:00.539Z,1003.99
2023-01-12T04:45:00.555Z,1004.02
2023-01-12T04:46:00.562Z,1004.08
2023-01-12T04:47:00.555Z,1004.01
2023-01-12T04:48:00.554Z,1003.99
2023-01-12T04:49:00.562Z,1003.94
2023-01-12T04:50:00.568Z,1004.01
2023-01-12T04:51:00.568Z,1003.96
2023-01-12T04:52:00.565Z,1003.95
2023-01-12T04:53:00.594Z,1003.90
2023-01-12T04:54:00.576Z,1003.96
2023-01-12T04:55:00.590Z,1003.92
2023-01-12T04:56:00.626Z,1003.92
2023-01-12T04:57:00.585Z,1003.92
2023-01-12T04:58:00.584Z,1003.92
2023-01-12T04:59:00.593Z,1003.88
2023-01-12T05:00:00.589Z,1003.91
2023-01-12T05:01:00.637Z,1003.90
2023-01-12T05:02:00.689Z,1003.87
2023-01-12T05:03:00.608Z,1003.86
2023-01-12T05:04:00.797Z,1003.87
2023-01-12T05:05:00.605Z,1003.81
2023-01-12T05:06:00.614Z,1003.79
2023-01-12T05:07:00.620Z,1003.77
2023-01-12T05:08:00.630Z,1003.72
2023-01-12T05:09:00.625Z,1003.76
2023-01-12T05:10:00.621Z,1003.75
2023-01-12T05:11:00.629Z,1003.76
2023-01-12T05:12:00.699Z,1003.74
2023-01-12T05:13:00.637Z,1003.76
2023-01-12T05:14:00.643Z,1003.74
2023-01-12T05:15:00.657Z,1003.71
2023-01-12T05:16:00.652Z,1003.73
2023-01-12T05:17:00.652Z,1003.70
2023-01-12T05:18:00.653Z,1003.75
2023-01-12T05:19:00.653Z,1003.75
2023-01-12T05:20:01.134Z,1003.76
2023-01-12T05:21:00.662Z,1003.75
2023-01-12T05:22:00.666Z,1003.73
2023-01-12T05:23:00.668Z,1003.72
2023-01-12T05:24:00.677Z,1003.72
2023-01-12T05:25:00.677Z,1003.74
2023-01-12T05:26:00.671Z,1003.72
2023-01-12T05:27:00.684Z,1003.69
2023-01-12T05:28:00.783Z,1003.79
2023-01-12T05:29:00.678Z,1003.78
2023-01-12T05:30:00.690Z,1003.73
2023-01-12T05:31:00.712Z,1003.77
2023-01-12T05:32:00.698Z,1003.71
2023-01-12T05:33:00.693Z,1003.72
2023-01-12T05:34:00.703Z,1003.67
2023-01-12T05:35:00.716Z,1003.67
2023-01-12T05:36:00.707Z,1003.70
2023-01-12T05:37:00.721Z,1003.66
2023-01-12T05:38:00.733Z,1003.71
2023-01-12T05:39:00.722Z,1003.70
2023-01-12T05:40:00.724Z,1003.65
2023-01-12T05:41:00.719Z,1003.69
2023-01-12T05:42:00.733Z,1003.72
2023-01-12T05:43:00.753Z,1003.68
2023-01-12T05:44:00.758Z,1003.65
2023-01-12T05:45:00.739Z,1003.66
2023-01-12T05:46:00.759Z,1003.66
2023-01-12T05:47:00.746Z,1003.62
2023-01-12T05:48:00.751Z,1003.61
2023-01-12T05:49:00.751Z,1003.62
2023-01-12T05:50:00.748Z,1003.62
2023-01-12T05:51:00.762Z,1003.58
2023-01-12T05:52:00.763Z,1003.62
2023-01-12T05:53:00.758Z,1003.61
2023-01-12T05:54:00.763Z,1003.56
2023-01-12T05:55:00.769Z,1003.54
2023-01-12T05:56:00.772Z,1003.50
2023-01-12T05:57:00.774Z,1003.48
2023-01-12T05:58:00.781Z,1003.49
2023-01-12T05:59:00.811Z,1003.49
2023-01-12T06:00:00.823Z,1003.48
2023-01-12T06:01:00.823Z,1003.46
2023-01-12T06:02:00.865Z,1003.38
2023-01-12T06:03:00.816Z,1003.42
2023-01-12T06:04:00.837Z,1003.37
2023-01-12T06:05:00.921Z,1003.38
2023-01-12T06:06:00.800Z,1003.38
2023-01-12T06:07:00.813Z,1003.40
2023-01-12T06:08:00.808Z,1003.35
2023-01-12T06:09:00.826Z,1003.43
2023-01-12T06:10:00.826Z,1003.39
2023-01-12T06:11:00.819Z,1003.38
2023-01-12T06:12:00.822Z,1003.35
2023-01-12T06:13:00.831Z,1003.34
2023-01-12T06:14:00.833Z,1003.36
2023-01-12T06:15:00.829Z,1003.34
2023-01-12T06:16:00.962Z,1003.33
2023-01-12T06:17:00.853Z,1003.33
2023-01-12T06:18:00.842Z,1003.28
2023-01-12T06:19:00.843Z,1003.33
2023-01-12T06:20:00.855Z,1003.36
2023-01-12T06:21:00.862Z,1003.27
2023-01-12T06:22:00.860Z,1003.26
2023-01-12T06:23:00.865Z,1003.33
2023-01-12T06:24:00.867Z,1003.26
2023-01-12T06:25:00.870Z,1003.24
2023-01-12T06:26:00.869Z,1003.23
2023-01-12T06:27:00.899Z,1003.20
2023-01-12T06:28:00.885Z,1003.25
2023-01-12T06:29:00.885Z,1003.21
2023-01-12T06:30:00.897Z,1003.24
2023-01-12T06:31:00.959Z,1003.21
2023-01-12T06:32:00.917Z,1003.19
2023-01-12T06:33:00.910Z,1003.12
2023-01-12T06:34:00.904Z,1003.10
2023-01-12T06:35:07.042Z,1003.13
2023-01-12T06:36:00.906Z,1003.08
2023-01-12T06:37:00.913Z,1003.04
2023-01-12T06:38:00.917Z,1003.03
2023-01-12T06:39:00.917Z,1003.05
2023-01-12T06:40:00.922Z,1003.06
2023-01-12T06:41:00.924Z,1002.96
2023-01-12T06:42:00.928Z,1003.01
2023-01-12T06:43:00.930Z,1002.94
2023-01-12T06:44:00.930Z,1002.97
2023-01-12T06:45:00.937Z,1002.98
2023-01-12T06:46:01.009Z,1002.93
2023-01-12T06:47:00.943Z,1002.92
2023-01-12T06:48:00.981Z,1002.89
2023-01-12T06:49:00.955Z,1002.87
2023-01-12T06:50:00.961Z,1002.87
2023-01-12T06:51:00.949Z,1002.88
2023-01-12T06:52:00.971Z,1002.86
2023-01-12T06:53:00.964Z,1002.90
2023-01-12T06:54:00.967Z,1002.86
2023-01-12T06:55:00.966Z,1002.82
2023-01-12T06:56:00.975Z,1002.82
2023-01-12T06:57:00.976Z,1002.88
2023-01-12T06:58:00.981Z,1002.91
2023-01-12T06:59:00.982Z,1002.89
2023-01-12T07:00:00.980Z,1002.88
2023-01-12T07:01:01.045Z,1002.92
2023-01-12T07:02:01.048Z,1002.89
2023-01-12T07:03:01.004Z,1002.87
2023-01-12T07:04:01.104Z,1002.85
2023-01-12T07:05:01.040Z,1002.82
2023-01-12T07:06:01.006Z,1002.83
2023-01-12T07:07:01.002Z,1002.87
2023-01-12T07:08:01.017Z,1002.84
2023-01-12T07:09:01.020Z,1002.87
2023-01-12T07:10:01.013Z,1002.76
2023-01-12T07:11:01.024Z,1002.80
2023-01-12T07:12:01.027Z,1002.81
2023-01-12T07:13:01.024Z,1002.72
2023-01-12T07:14:01.040Z,1002.72
2023-01-12T07:15:01.036Z,1002.73
2023-01-12T07:16:01.071Z,1002.74
2023-01-12T07:17:01.046Z,1002.73
2023-01-12T07:18:01.044Z,1002.75
2023-01-12T07:19:01.049Z,1002.70
2023-01-12T07:20:01.134Z,1002.64
2023-01-12T07:21:01.051Z,1002.68
2023-01-12T07:22:01.053Z,1002.69
2023-01-12T07:23:01.056Z,1002.63
2023-01-12T07:24:01.068Z,1002.64
2023-01-12T07:25:01.067Z,1002.70
2023-01-12T07:26:01.073Z,1002.66
2023-01-12T07:27:01.067Z,1002.65
2023-01-12T07:28:01.073Z,1002.62
2023-01-12T07:29:01.108Z,1002.66
2023-01-12T07:30:01.091Z,1002.58
2023-01-12T07:31:01.222Z,1002.58
2023-01-12T07:32:01.088Z,1002.57
2023-01-12T07:33:01.088Z,1002.61
2023-01-12T07:34:01.102Z,1002.54
2023-01-12T07:35:01.105Z,1002.59
2023-01-12T07:36:01.195Z,1002.57
2023-01-12T07:37:01.114Z,1002.51
2023-01-12T07:38:01.108Z,1002.53
2023-01-12T07:39:01.115Z,1002.50
2023-01-12T07:40:01.118Z,1002.48
2023-01-12T07:41:01.125Z,1002.48
2023-01-12T07:42:01.118Z,1002.46
2023-01-12T07:43:01.130Z,1002.39
2023-01-12T07:44:01.131Z,1002.45
2023-01-12T07:45:01.148Z,1002.39
2023-01-12T07:46:01.256Z,1002.35
2023-01-12T07:47:01.151Z,1002.33
2023-01-12T07:48:01.146Z,1002.37
2023-01-12T07:49:01.149Z,1002.35
2023-01-12T07:50:01.146Z,1002.35
2023-01-12T07:51:01.151Z,1002.37
2023-01-12T07:52:01.170Z,1002.36
2023-01-12T07:53:01.176Z,1002.34
2023-01-12T07:54:01.160Z,1002.31
2023-01-12T07:55:01.164Z,1002.33
2023-01-12T07:56:01.168Z,1002.38
2023-01-12T07:57:01.187Z,1002.35
2023-01-12T07:58:01.185Z,1002.30
2023-01-12T07:59:01.176Z,1002.20
2023-01-12T08:00:01.188Z,1002.24
2023-01-12T08:01:01.269Z,1002.14
2023-01-12T08:02:01.236Z,1002.30
2023-01-12T08:03:01.208Z,1002.17
2023-01-12T08:04:01.195Z,1002.15
2023-01-12T08:05:01.207Z,1002.16
2023-01-12T08:06:01.203Z,1002.15
2023-01-12T08:07:01.229Z,1002.13
2023-01-12T08:08:03.428Z,1002.10
2023-01-12T08:09:01.220Z,1002.12
2023-01-12T08:10:01.216Z,1002.14
2023-01-12T08:11:01.224Z,1002.12
2023-01-12T08:12:01.229Z,1002.10
2023-01-12T08:13:01.224Z,1002.09
2023-01-12T08:14:01.240Z,1002.06
2023-01-12T08:15:01.242Z,1002.00
2023-01-12T08:16:01.297Z,1001.88
2023-01-12T08:17:01.255Z,1001.89
2023-01-12T08:18:01.249Z,1001.90
2023-01-12T08:19:01.254Z,1001.84
2023-01-12T08:20:01.269Z,1001.83
2023-01-12T08:21:01.264Z,1001.83
2023-01-12T08:22:01.258Z,1001.78
2023-01-12T08:23:01.273Z,1001.80
2023-01-12T08:24:01.298Z,1001.79
2023-01-12T08:25:01.273Z,1001.79
2023-01-12T08:26:01.285Z,1001.75
2023-01-12T08:27:01.287Z,1001.78
2023-01-12T08:28:01.281Z,1001.74
2023-01-12T08:29:01.283Z,1001.68
2023-01-12T08:30:01.293Z,1001.66
2023-01-12T08:31:01.389Z,1001.59
2023-01-12T08:32:02.665Z,1001.61
2023-01-12T08:33:01.310Z,1001.54
2023-01-12T08:34:01.301Z,1001.56
2023-01-12T08:35:01.846Z,1001.55
2023-01-12T08:36:01.318Z,1001.51
2023-01-12T08:37:01.310Z,1001.49
2023-01-12T08:38:01.318Z,1001.53
2023-01-12T08:39:01.330Z,1001.51
2023-01-12T08:40:01.358Z,1001.49
2023-01-12T08:41:01.351Z,1001.43
2023-01-12T08:42:01.336Z,1001.37
2023-01-12T08:43:01.333Z,1001.43
2023-01-12T08:44:01.338Z,1001.48
2023-01-12T08:45:01.359Z,1001.48
2023-01-12T08:46:01.350Z,1001.46
2023-01-12T08:47:01.361Z,1001.39
2023-01-12T08:48:01.353Z,1001.44
2023-01-12T08:49:01.366Z,1001.36
2023-01-12T08:50:01.370Z,1001.35
2023-01-12T08:51:01.361Z,1001.38
2023-01-12T08:52:01.379Z,1001.37
2023-01-12T08:53:01.380Z,1001.25
2023-01-12T08:54:01.380Z,1001.32
2023-01-12T08:55:01.382Z,1001.33
2023-01-12T08:56:01.418Z,1001.32
2023-01-12T08:57:01.385Z,1001.33
2023-01-12T08:58:01.395Z,1001.35
2023-01-12T08:59:01.395Z,1001.26
2023-01-12T09:00:01.403Z,1001.22
2023-01-12T09:01:01.490Z,1001.24
2023-01-12T09:02:01.550Z,1001.25
2023-01-12T09:03:01.414Z,1001.28
2023-01-12T09:04:01.416Z,1001.37
2023-01-12T09:05:01.426Z,1001.31
2023-01-12T09:06:01.427Z,1001.30
2023-01-12T09:07:01.444Z,1001.39
2023-01-12T09:08:01.426Z,1001.20
2023-01-12T09:09:01.433Z,1001.26
2023-01-12T09:10:01.441Z,1001.16
2023-01-12T09:11:01.439Z,1001.24
2023-01-12T09:12:01.523Z,1001.22
2023-01-12T09:13:01.451Z,1001.12
2023-01-12T09:14:01.448Z,1001.11
2023-01-12T09:15:01.460Z,1001.12
2023-01-12T09:16:12.417Z,1001.11
2023-01-12T09:17:01.589Z,1001.07
2023-01-12T09:18:01.474Z,1001.12
2023-01-12T09:19:01.484Z,1001.09
2023-01-12T09:20:01.475Z,1001.06
2023-01-12T09:21:01.493Z,1001.09
2023-01-12T09:22:01.518Z,1001.10
2023-01-12T09:23:01.559Z,1001.03
2023-01-12T09:24:01.537Z,1001.05
2023-01-12T09:25:01.507Z,1001.12
2023-01-12T09:26:01.502Z,1000.96
2023-01-12T09:27:01.588Z,1000.94
2023-01-12T09:28:01.531Z,1000.97
2023-01-12T09:29:01.513Z,1000.97
2023-01-12T09:30:01.526Z,1000.85
2023-01-12T09:31:01.526Z,1000.87
2023-01-12T09:32:01.574Z,1000.95
2023-01-12T09:33:01.530Z,1000.88
2023-01-12T09:34:01.542Z,1000.97
2023-01-12T09:35:01.596Z,1000.93
2023-01-12T09:36:01.578Z,1001.01
2023-01-12T09:37:01.562Z,1001.01
2023-01-12T09:38:01.547Z,1000.96
2023-01-12T09:39:01.550Z,1000.96
2023-01-12T09:40:01.550Z,1000.93
2023-01-12T09:41:02.451Z,1000.93
2023-01-12T09:42:01.597Z,1000.99
2023-01-12T09:43:01.566Z,1000.93
2023-01-12T09:44:01.601Z,1000.91
2023-01-12T09:45:01.579Z,1001.03
2023-01-12T09:46:01.624Z,1000.98
2023-01-12T09:47:01.582Z,1000.96
2023-01-12T09:48:01.606Z,1001.01
2023-01-12T09:49:01.609Z,1000.93
2023-01-12T09:50:09.172Z,1000.94
2023-01-12T09:51:01.606Z,1000.95
2023-01-12T09:52:01.591Z,1001.02
2023-01-12T09:53:01.607Z,1000.93
2023-01-12T09:54:01.608Z,1000.90
2023-01-12T09:55:01.610Z,1000.88
2023-01-12T09:56:01.621Z,1000.85
2023-01-12T09:57:01.612Z,1000.87
2023-01-12T09:58:01.624Z,1000.94
2023-01-12T09:59:01.618Z,1000.85
2023-01-12T10:00:01.648Z,1000.94
2023-01-12T10:01:01.678Z,1000.96
2023-01-12T10:02:01.757Z,1000.88
2023-01-12T10:03:01.780Z,1000.93
2023-01-12T10:04:01.643Z,1000.88
2023-01-12T10:05:01.637Z,1000.83
2023-01-12T10:06:01.651Z,1000.88
2023-01-12T10:07:01.644Z,1000.92
2023-01-12T10:08:01.666Z,1000.87
2023-01-12T10:09:01.679Z,1000.86
2023-01-12T10:10:01.661Z,1000.99
2023-01-12T10:11:01.665Z,1000.99
2023-01-12T10:12:01.672Z,1000.92
2023-01-12T10:13:01.680Z,1000.99
2023-01-12T10:14:01.674Z,1000.99
2023-01-12T10:15:01.681Z,1000.91
2023-01-12T10:16:01.787Z,1000.83
2023-01-12T10:17:01.730Z,1000.86
2023-01-12T10:18:01.694Z,1000.93
2023-01-12T10:19:01.690Z,1000.85
2023-01-12T10:20:01.711Z,1000.90
2023-01-12T10:21:01.709Z,1000.92
2023-01-12T10:22:01.698Z,1000.77
2023-01-12T10:23:01.711Z,1000.90
2023-01-12T10:24:01.718Z,1000.92
2023-01-12T10:25:01.739Z,1000.85
2023-01-12T10:26:01.722Z,1000.81
2023-01-12T10:27:01.787Z,1000.92
2023-01-12T10:28:01.731Z,1000.76
2023-01-12T10:29:01.727Z,1000.77
2023-01-12T10:30:01.731Z,1000.74
2023-01-12T10:31:01.753Z,1000.89
2023-01-12T10:32:01.796Z,1000.83
2023-01-12T10:33:01.754Z,1000.80
2023-01-12T10:34:01.743Z,1000.90
2023-01-12T10:35:01.757Z,1000.86
2023-01-12T10:36:01.758Z,1000.92
2023-01-12T10:37:01.755Z,1000.85
2023-01-12T10:38:01.764Z,1000.88
2023-01-12T10:39:01.810Z,1000.86
2023-01-12T10:40:01.792Z,1000.84
2023-01-12T10:41:01.778Z,1000.91
2023-01-12T10:42:01.782Z,1000.86
2023-01-12T10:43:04.153Z,1000.90
2023-01-12T10:44:01.788Z,1000.78
2023-01-12T10:45:01.806Z,1000.83
2023-01-12T10:46:01.848Z,1000.82
2023-01-12T10:47:01.800Z,1000.73
2023-01-12T10:48:01.829Z,1000.87
2023-01-12T10:49:01.803Z,1000.75
2023-01-12T10:50:01.822Z,1000.83
2023-01-12T10:51:01.821Z,1000.73
2023-01-12T10:52:01.812Z,1000.83
2023-01-12T10:53:01.845Z,1000.73
2023-01-12T10:54:01.824Z,1000.82
2023-01-12T10:55:01.840Z,1000.83
2023-01-12T10:56:01.836Z,1000.85
2023-01-12T10:57:01.838Z,1000.79
2023-01-12T10:58:01.845Z,1000.82
2023-01-12T10:59:01.851Z,1000.77
2023-01-12T11:00:01.873Z,1000.79
2023-01-12T11:01:01.991Z,1000.83
2023-01-12T11:02:02.088Z,1000.77
2023-01-12T11:03:01.922Z,1000.84
2023-01-12T11:04:01.891Z,1000.75
2023-01-12T11:05:02.880Z,1000.74
2023-01-12T11:06:01.873Z,1000.75
2023-01-12T11:07:04.986Z,1000.73
2023-01-12T11:08:01.878Z,1000.87
2023-01-12T11:09:01.887Z,1000.77
2023-01-12T11:10:01.885Z,1000.69
2023-01-12T11:11:01.895Z,1000.68
2023-01-12T11:12:01.897Z,1000.65
2023-01-12T11:13:01.896Z,1000.63
2023-01-12T11:14:01.905Z,1001.02
2023-01-12T11:15:01.907Z,1000.68
2023-01-12T11:16:01.920Z,1000.73
2023-01-12T11:17:01.925Z,1000.65
2023-01-12T11:18:01.928Z,1000.60
2023-01-12T11:19:01.930Z,1000.71
2023-01-12T11:20:01.956Z,1000.60
2023-01-12T11:21:01.954Z,1000.63
2023-01-12T11:22:01.939Z,1000.58
2023-01-12T11:23:01.935Z,1000.60
2023-01-12T11:24:01.947Z,1000.52
2023-01-12T11:25:01.945Z,1000.58
2023-01-12T11:26:01.952Z,1000.49
2023-01-12T11:27:01.959Z,1000.58
2023-01-12T11:28:01.956Z,1000.52
2023-01-12T11:29:01.964Z,1000.56
2023-01-12T11:30:01.977Z,1000.49
2023-01-12T11:31:02.065Z,1000.46
2023-01-12T11:32:01.981Z,1000.43
2023-01-12T11:33:01.976Z,1000.44
2023-01-12T11:34:01.988Z,1000.41
2023-01-12T11:35:04.628Z,1000.45
2023-01-12T11:36:02.010Z,1000.43
2023-01-12T11:37:01.994Z,1000.49
2023-01-12T11:38:02.011Z,1000.40
2023-01-12T11:39:02.021Z,1000.40
2023-01-12T11:40:02.065Z,1000.47
2023-01-12T11:41:02.022Z,1000.39
2023-01-12T11:42:02.018Z,1000.37
2023-01-12T11:43:02.023Z,1000.35
2023-01-12T11:44:02.027Z,1000.36
2023-01-12T11:45:02.062Z,1000.33
2023-01-12T11:46:02.108Z,1000.30
2023-01-12T11:47:02.044Z,1000.42
2023-01-12T11:48:02.048Z,1000.31
2023-01-12T11:49:02.052Z,1000.32
2023-01-12T11:50:02.054Z,1000.31
2023-01-12T11:51:02.069Z,1000.28
2023-01-12T11:52:02.084Z,1000.29
2023-01-12T11:53:02.069Z,1000.27
2023-01-12T11:54:02.078Z,1000.25
2023-01-12T11:55:02.082Z,1000.35
2023-01-12T11:56:02.081Z,1000.34
2023-01-12T11:57:02.096Z,1000.18
2023-01-12T11:58:02.088Z,1000.25
2023-01-12T11:59:02.088Z,1000.28
2023-01-12T12:00:02.101Z,1000.24
2023-01-12T12:01:02.198Z,1000.31
2023-01-12T12:02:02.769Z,1000.23
2023-01-12T12:03:02.104Z,1000.29
2023-01-12T12:04:02.172Z,1000.15
2023-01-12T12:05:02.129Z,1000.26
2023-01-12T12:06:02.135Z,1000.31